map of YHU home
Great Circle Mapper logo
YHU - Airport
Location
City:  Montréal, Québec, Canada
Name:St. Hubert
ICAO / IATA:CYHU / YHU

Details
Type:Airport (Airfield)
Use:Public/Civil, International (customs port of entry)
Latitude:45°31'03"N (45.517500)
Longitude:73°25'01"W (-73.416943)
Datum:WGS 1984
Elevation:90 ft (27 m)
Runways:3
Longest:7840 × 150 ft (2390 × 45.5 m), paved

Time
Time Zone:UTC-5 (DST-4)
Local Time:

Weather
METAR:CYHU 200000Z AUTO 35006KT CLR 07/M10 A3038 RMK WX MISG VIS MISG SLP289
TAF:CYHU 192338Z 2000/2024 34010KT P6SM FEW050
FM201100 05008KT P6SM BKN130 OVC200
BECMG 2014/2016 09008KT
FM202000 15006KT P6SM OVC110
RMK FCST BASED ON AUTO OBS. NXT FCST BY 200600Z

Related Locations
Nearby:
Farthest:MGV: 11515 mi / 18531 km
Margaret River, WA, AU

Find:

   beyond  
but within

Other Information
Maps:
NOTAMs:
Links:
Sources:

  
flag of Canada
flag of Québec
flag of Montréal
  

Airport Diagram

Airport diagram for YHU

Airport diagram PDF

Sectional Chart

Flight Planning
at skyvector.com

Satellite Image

Google Maps Satellite View

 

Copyright © 2004-2014 Karl L. Swartz. All rights reserved.
The Great Circle Mapper name and logo are trademarks of the Great Circle Mapper.
All other trademarks mentioned herein belong to their respective owners.
Please see credits for attibutions and further copyright information.

  Follow gcmap on Facebook Follow gcmap on Twitter

hCard Microformat

Geo Microformat